Time;durP1;ratioP1;P1;durP2;ratioP2;P2;SDS_P1;SDS_P2;PMS_P1;PMS_P2;Temp;Humidity;BMP_temperature;BMP_pressure;BME280_temperature;BME280_humidity;BME280_pressure;Samples;Min_cycle;Max_cycle;Signal;HPM_P1;HPM_P2
2021/10/11 00:02:20;;;;;;;11.73;10.53;;;;;;;8.43;66.94;96431.22;5041985;28;20202;-82
2021/10/11 00:04:47;;;;;;;11.53;10.33;;;;;;;8.38;67.01;96433.41;5041480;28;20206;-82
2021/10/11 00:07:13;;;;;;;11.67;10.57;;;;;;;8.43;66.63;96431.22;5041591;28;20221;-82
2021/10/11 00:09:40;;;;;;;11.40;10.20;;;;;;;8.41;66.33;96439.06;5041730;28;20281;-82
2021/10/11 00:12:08;;;;;;;11.03;10.03;;;;;;;8.38;66.44;96436.78;5040828;28;20206;-82
2021/10/11 00:14:34;;;;;;;12.53;10.63;;;;;;;8.40;66.60;96434.88;5041797;28;20260;-82
2021/10/11 00:17:01;;;;;;;11.50;10.40;;;;;;;8.30;66.73;96429.75;5041694;28;20226;-82
2021/10/11 00:19:33;;;;;;;11.30;10.10;;;;;;;8.14;67.50;96429.53;5042984;28;20205;-82
2021/10/11 00:22:00;;;;;;;10.80;9.70;;;;;;;8.07;67.92;96423.38;5042246;28;20202;-82
2021/10/11 00:24:26;;;;;;;11.03;10.00;;;;;;;8.05;68.30;96421.91;5043070;28;20206;-82
2021/10/11 00:26:52;;;;;;;11.17;10.07;;;;;;;8.04;68.88;96422.84;5042625;28;20206;-82
2021/10/11 00:29:20;;;;;;;10.80;9.80;;;;;;;8.04;68.69;96415.16;5042053;28;20736;-83
2021/10/11 00:31:47;;;;;;;10.73;9.63;;;;;;;8.10;68.54;96414.56;5042101;28;20198;-82
2021/10/11 00:34:13;;;;;;;10.67;9.67;;;;;;;7.95;69.61;96417.59;5039847;28;20202;-82
2021/10/11 00:36:40;;;;;;;12.70;9.90;;;;;;;7.95;69.37;96422.72;5040555;28;20198;-82
2021/10/11 00:39:06;;;;;;;15.03;10.80;;;;;;;7.83;70.71;96430.72;5040659;28;20212;-82
2021/10/11 00:41:33;;;;;;;11.70;10.60;;;;;;;7.81;70.72;96424.94;5039517;28;20746;-82
2021/10/11 00:44:00;;;;;;;12.10;9.97;;;;;;;7.84;70.96;96427.22;5038198;28;20202;-82
2021/10/11 00:46:28;;;;;;;10.90;9.90;;;;;;;7.80;71.35;96425.88;5040668;28;20198;-82
2021/10/11 00:48:55;;;;;;;11.10;10.00;;;;;;;7.90;70.65;96416.38;5040844;28;20601;-82
2021/10/11 00:51:22;;;;;;;10.33;9.43;;;;;;;7.86;70.27;96408.19;5033678;28;20571;-82
2021/10/11 00:53:48;;;;;;;12.20;9.47;;;;;;;7.79;70.74;96409.69;5011583;28;20700;-82
2021/10/11 00:56:16;;;;;;;11.20;10.13;;;;;;;7.68;71.47;96412.41;5017102;28;20217;-82
2021/10/11 00:58:42;;;;;;;10.70;9.60;;;;;;;7.81;70.97;96412.09;5031195;28;20253;-82
2021/10/11 01:01:08;;;;;;;10.70;9.70;;;;;;;7.90;70.68;96411.25;5031793;28;20217;-82
2021/10/11 01:03:37;;;;;;;10.80;9.73;;;;;;;7.92;70.35;96399.09;5031036;28;20206;-82
2021/10/11 01:06:04;;;;;;;11.00;9.93;;;;;;;7.89;70.44;96404.50;5031468;28;20226;-82
2021/10/11 01:08:31;;;;;;;10.03;9.03;;;;;;;7.92;70.51;96401.66;5031961;28;20225;-82
2021/10/11 01:10:58;;;;;;;10.97;9.97;;;;;;;7.93;70.62;96406.66;5032087;28;20209;-82
2021/10/11 01:13:24;;;;;;;11.17;10.07;;;;;;;7.94;71.13;96408.28;5031584;28;20754;-82
2021/10/11 01:15:50;;;;;;;11.23;10.03;;;;;;;8.00;70.98;96406.13;5031396;28;20237;-82
2021/10/11 01:18:17;;;;;;;10.90;9.80;;;;;;;7.93;70.96;96406.66;5031778;28;20226;-82
2021/10/11 01:20:45;;;;;;;11.20;10.10;;;;;;;7.90;71.53;96406.94;5031646;28;20779;-82
2021/10/11 01:23:12;;;;;;;13.27;9.87;;;;;;;7.87;71.97;96406.44;5031327;28;20213;-82
2021/10/11 01:25:38;;;;;;;10.60;9.60;;;;;;;7.88;71.18;96411.44;5031439;28;20210;-82
2021/10/11 01:28:05;;;;;;;10.50;9.50;;;;;;;7.86;72.67;96408.19;5031631;28;20221;-82
2021/10/11 01:30:31;;;;;;;10.90;9.70;;;;;;;7.85;72.91;96406.56;5031779;28;20566;-82
2021/10/11 01:32:57;;;;;;;11.10;10.00;;;;;;;7.89;72.61;96404.50;5033498;28;20198;-82
2021/10/11 01:35:24;;;;;;;10.33;9.27;;;;;;;7.93;72.43;96405.84;5035204;28;20198;-82
2021/10/11 01:37:52;;;;;;;11.00;9.90;;;;;;;7.96;72.26;96406.38;5035048;28;20226;-82
2021/10/11 01:40:20;;;;;;;11.27;10.10;;;;;;;8.01;72.32;96403.41;5035283;28;20221;-82
2021/10/11 01:42:46;;;;;;;12.93;10.00;;;;;;;8.08;72.17;96409.56;5035140;28;20796;-82
2021/10/11 01:45:13;;;;;;;11.70;9.90;;;;;;;8.08;72.79;96399.31;5034864;28;20198;-82
2021/10/11 01:47:40;;;;;;;11.10;9.90;;;;;;;8.08;72.75;96396.75;5035136;28;20226;-82
2021/10/11 01:50:08;;;;;;;11.13;9.93;;;;;;;8.02;72.69;96391.41;5035069;28;20688;-82
2021/10/11 01:52:36;;;;;;;10.90;9.23;;;;;;;7.99;72.96;96392.47;5024572;28;20711;-82
2021/10/11 01:55:04;;;;;;;10.57;9.53;;;;;;;7.91;73.84;96395.72;5015941;28;20230;-82
2021/10/11 01:57:31;;;;;;;10.77;9.77;;;;;;;7.91;73.90;96398.31;5015258;28;20859;-82
2021/10/11 01:59:57;;;;;;;9.97;8.87;;;;;;;7.85;74.20;96393.75;5035063;28;20210;-82
2021/10/11 02:02:24;;;;;;;10.90;9.80;;;;;;;7.88;73.63;96380.66;5036362;28;20229;-82
2021/10/11 02:04:50;;;;;;;10.57;9.57;;;;;;;7.94;73.16;96379.25;5034873;28;20217;-82
2021/10/11 02:07:17;;;;;;;10.10;9.10;;;;;;;7.94;73.61;96382.63;5035320;28;20218;-82
2021/10/11 02:09:43;;;;;;;10.20;9.20;;;;;;;7.94;74.05;96389.53;5035480;28;20198;-82
2021/10/11 02:12:11;;;;;;;9.70;8.80;;;;;;;7.96;73.81;96385.06;5036022;28;20308;-82
2021/10/11 02:14:38;;;;;;;10.07;9.07;;;;;;;7.95;74.55;96380.88;5028059;28;20194;-82
2021/10/11 02:17:04;;;;;;;9.90;9.00;;;;;;;7.96;74.10;96395.31;5032968;28;20214;-82
2021/10/11 02:19:31;;;;;;;16.90;9.77;;;;;;;7.86;74.42;96389.44;5035162;28;20198;-82
2021/10/11 02:21:57;;;;;;;10.43;9.43;;;;;;;7.86;75.01;96385.13;5035362;28;20225;-82
2021/10/11 02:24:24;;;;;;;9.67;8.77;;;;;;;7.93;74.51;96390.47;5022407;28;20198;-82
2021/10/11 02:26:50;;;;;;;14.13;9.57;;;;;;;7.92;74.73;96389.66;5015264;28;20257;-82
2021/10/11 02:29:18;;;;;;;10.10;9.10;;;;;;;7.95;74.84;96402.22;5015357;28;20203;-82
2021/10/11 02:31:45;;;;;;;10.00;9.00;;;;;;;7.96;75.11;96396.13;5018338;28;20775;-82
2021/10/11 02:34:11;;;;;;;10.10;9.10;;;;;;;7.96;74.95;96400.44;5020449;28;20211;-82
2021/10/11 02:36:38;;;;;;;12.90;9.50;;;;;;;7.98;74.86;96396.81;5016034;28;20557;-82
2021/10/11 02:39:04;;;;;;;20.57;9.93;;;;;;;8.06;74.59;96395.31;5016184;28;20582;-82
2021/10/11 02:41:31;;;;;;;10.60;9.13;;;;;;;7.96;75.29;96396.13;5015093;28;20246;-82
2021/10/11 02:43:57;;;;;;;10.17;9.17;;;;;;;7.99;75.57;96400.19;5014211;28;20206;-82
2021/10/11 02:46:25;;;;;;;9.97;9.00;;;;;;;8.01;75.29;96400.03;5014519;28;20709;-82
2021/10/11 02:48:51;;;;;;;10.43;9.17;;;;;;;7.96;75.31;96387.63;5017655;28;20217;-82
2021/10/11 02:51:18;;;;;;;9.90;8.73;;;;;;;7.93;75.42;96390.47;5034745;28;20194;-82
2021/10/11 02:53:49;;;;;;;9.40;8.50;;;;;;;7.86;75.65;96387.69;5014693;28;20210;-82
2021/10/11 02:56:15;;;;;;;9.87;8.87;;;;;;;7.86;75.73;96397.13;5034492;28;20197;-82
2021/10/11 02:58:42;;;;;;;9.03;8.07;;;;;;;7.93;75.19;96390.47;5038394;28;20234;-82
2021/10/11 03:01:08;;;;;;;9.37;8.47;;;;;;;7.99;74.72;96397.63;5034650;28;20217;-82
2021/10/11 03:03:36;;;;;;;8.97;7.90;;;;;;;8.06;73.79;96397.88;5034041;28;20213;-82
2021/10/11 03:06:02;;;;;;;10.33;7.93;;;;;;;8.01;74.21;96393.16;5034210;28;20202;-82
2021/10/11 03:08:29;;;;;;;9.83;8.40;;;;;;;7.92;74.58;96404.25;5033728;28;20233;-82
2021/10/11 03:10:57;;;;;;;8.70;7.80;;;;;;;7.92;74.43;96399.91;5034047;28;20408;-82
2021/10/11 03:13:23;;;;;;;8.40;7.60;;;;;;;7.93;74.33;96403.28;5034201;28;20429;-82
2021/10/11 03:15:50;;;;;;;9.90;8.17;;;;;;;7.93;74.19;96400.72;5033809;28;20237;-82
2021/10/11 03:18:16;;;;;;;10.90;8.07;;;;;;;7.92;74.05;96407.63;5033608;28;20226;-82
2021/10/11 03:20:44;;;;;;;8.87;7.40;;;;;;;7.89;73.81;96410.44;5034147;28;20198;-82
2021/10/11 03:23:11;;;;;;;8.83;7.93;;;;;;;7.90;73.72;96408.69;5033952;28;20571;-82
2021/10/11 03:25:37;;;;;;;9.33;7.60;;;;;;;7.86;74.01;96415.88;5033541;28;20205;-82
2021/10/11 03:28:04;;;;;;;8.70;7.90;;;;;;;7.88;73.55;96408.88;5034014;28;20222;-82
2021/10/11 03:30:32;;;;;;;8.40;7.60;;;;;;;7.91;73.54;96415.44;5033974;28;20198;-82
2021/10/11 03:32:59;;;;;;;8.43;7.63;;;;;;;7.84;73.51;96420.34;5033970;28;20198;-82
2021/10/11 03:35:26;;;;;;;8.90;7.67;;;;;;;7.87;73.64;96424.38;5033350;28;20198;-82
2021/10/11 03:37:53;;;;;;;8.03;7.23;;;;;;;7.82;73.77;96418.84;5033580;28;20230;-82
2021/10/11 03:40:20;;;;;;;7.93;7.13;;;;;;;7.81;73.67;96414.66;5033137;28;20206;-82
2021/10/11 03:42:46;;;;;;;8.57;7.77;;;;;;;7.82;73.44;96404.28;5033214;28;20218;-81
2021/10/11 03:45:13;;;;;;;21.13;8.10;;;;;;;7.78;73.58;96418.31;5033799;28;20213;-82
2021/10/11 03:47:39;;;;;;;22.00;7.80;;;;;;;7.67;73.63;96397.19;5033588;28;20230;-82
2021/10/11 03:50:07;;;;;;;11.53;7.60;;;;;;;7.70;73.46;96402.81;5033895;28;20623;-82
2021/10/11 03:52:33;;;;;;;8.20;7.40;;;;;;;7.68;73.69;96399.59;5030800;28;20198;-82
2021/10/11 03:55:01;;;;;;;8.03;7.33;;;;;;;7.65;73.66;96405.00;5031892;28;20221;-82
2021/10/11 03:57:28;;;;;;;8.17;7.17;;;;;;;7.64;73.71;96405.94;5032862;28;20249;-82
2021/10/11 03:59:54;;;;;;;6.90;6.30;;;;;;;7.62;74.18;96400.94;5033297;28;20202;-82
2021/10/11 04:02:20;;;;;;;9.30;7.77;;;;;;;7.63;73.74;96397.44;5033214;28;20715;-82
2021/10/11 04:04:47;;;;;;;8.40;7.60;;;;;;;7.70;73.59;96407.94;5061668;23;20226;-84
2021/10/11 04:07:16;;;;;;;8.10;7.30;;;;;;;7.68;73.73;96409.03;5052615;28;20205;-84
2021/10/11 04:09:44;;;;;;;8.70;7.90;;;;;;;7.65;74.21;96404.19;5044856;28;20190;-84
2021/10/11 04:12:19;;;;;;;10.03;8.57;;;;;;;7.67;75.35;96417.69;5044184;28;20277;-83
2021/10/11 04:14:45;;;;;;;8.90;8.00;;;;;;;7.68;74.76;96417.53;5053376;28;20305;-84
2021/10/11 04:17:12;;;;;;;8.90;7.97;;;;;;;7.72;74.27;96423.19;5053209;28;20734;-84
2021/10/11 04:19:38;;;;;;;9.20;8.30;;;;;;;7.70;74.36;96423.31;5048685;28;20201;-84
2021/10/11 04:22:05;;;;;;;9.47;8.47;;;;;;;7.72;74.04;96420.63;5048143;28;20734;-84
2021/10/11 04:24:32;;;;;;;8.47;7.67;;;;;;;7.74;74.15;96423.84;5055170;28;20865;-84
2021/10/11 04:26:58;;;;;;;8.27;7.47;;;;;;;7.73;74.15;96419.66;5054326;28;20197;-84
2021/10/11 04:29:26;;;;;;;8.30;7.50;;;;;;;7.75;73.75;96436.53;5035577;28;20892;-84
2021/10/11 04:31:53;;;;;;;10.50;7.63;;;;;;;7.71;74.16;96437.75;5034368;28;20593;-83
2021/10/11 04:34:19;;;;;;;8.30;7.50;;;;;;;7.70;73.66;96436.13;5049437;28;20234;-84
2021/10/11 04:36:45;;;;;;;8.40;7.60;;;;;;;7.68;74.04;96437.25;5046962;28;20212;-84
2021/10/11 04:39:12;;;;;;;8.23;7.50;;;;;;;7.68;73.54;96432.13;5050841;28;20205;-84
2021/10/11 04:41:39;;;;;;;8.43;7.33;;;;;;;7.69;73.68;96428.59;5054004;28;20261;-84
2021/10/11 04:44:05;;;;;;;8.07;7.30;;;;;;;7.69;73.19;96424.28;5049047;28;20276;-83
2021/10/11 04:46:36;;;;;;;8.80;7.90;;;;;;;7.67;73.57;96425.38;5048751;28;20220;-83
2021/10/11 04:49:05;;;;;;;8.50;7.70;;;;;;;7.67;73.45;96427.94;5049317;28;20206;-84
2021/10/11 04:51:35;;;;;;;8.13;7.33;;;;;;;7.65;73.36;96422.13;5048811;28;20193;-84
2021/10/11 04:54:03;;;;;;;8.03;7.30;;;;;;;7.53;74.00;96426.59;5050289;28;20224;-84
2021/10/11 04:56:32;;;;;;;7.77;7.07;;;;;;;7.57;73.60;96425.38;5056734;28;20224;-84
2021/10/11 04:58:59;;;;;;;7.77;7.07;;;;;;;7.53;73.33;96422.25;5062198;28;20205;-83
2021/10/11 05:01:27;;;;;;;7.50;6.77;;;;;;;7.60;73.25;96425.09;5056325;28;20307;-83
2021/10/11 05:04:01;;;;;;;7.70;6.97;;;;;;;7.58;72.95;96419.28;5033362;28;20194;-84
2021/10/11 05:06:30;;;;;;;8.03;7.33;;;;;;;7.55;73.10;96411.88;5045738;28;20201;-84
2021/10/11 05:09:00;;;;;;;8.17;7.37;;;;;;;7.56;72.80;96413.50;5031739;28;20198;-83
2021/10/11 05:11:27;;;;;;;8.13;7.33;;;;;;;7.55;73.12;96419.56;5032063;28;20202;-84
2021/10/11 05:13:53;;;;;;;7.70;7.00;;;;;;;7.56;73.21;96414.31;5042191;28;20288;-84
2021/10/11 05:16:20;;;;;;;7.73;6.93;;;;;;;7.49;75.00;96410.69;5052776;28;20205;-84
2021/10/11 05:18:48;;;;;;;7.67;6.90;;;;;;;7.47;75.06;96409.22;5053500;28;20201;-83
2021/10/11 05:21:23;;;;;;;7.83;6.47;;;;;;;7.46;74.00;96412.72;5050313;28;20208;-83
2021/10/11 05:23:50;;;;;;;12.43;11.13;;;;;;;7.46;73.41;96420.41;5030869;28;20209;-84
2021/10/11 05:26:16;;;;;;;7.47;6.77;;;;;;;7.42;73.18;96414.72;5032047;28;20213;-84
2021/10/11 05:29:31;;;;;;;8.33;6.93;;;;;;;7.37;73.67;96422.00;5034276;28;20214;-84
2021/10/11 05:32:02;;;;;;;7.53;6.77;;;;;;;7.39;73.43;96422.69;4972929;28;20643;-84
2021/10/11 05:34:34;;;;;;;7.73;6.67;;;;;;;7.32;73.54;96424.16;5047067;28;20240;-84
2021/10/11 05:37:05;;;;;;;7.17;6.53;;;;;;;7.32;73.37;96428.47;5053118;28;20212;-83
2021/10/11 05:39:35;;;;;;;6.83;6.20;;;;;;;7.35;73.30;96434.16;5042185;28;20198;-84
2021/10/11 05:42:01;;;;;;;7.30;6.60;;;;;;;7.36;73.66;96437.53;5035297;28;20321;-84
2021/10/11 05:44:38;;;;;;;7.10;6.37;;;;;;;7.40;72.79;96431.19;5050043;28;20228;-84
2021/10/11 05:47:05;;;;;;;7.27;5.90;;;;;;;7.35;73.10;96435.91;5047739;28;20205;-84
2021/10/11 05:49:32;;;;;;;7.77;6.63;;;;;;;7.37;73.16;96434.00;5043779;28;20282;-84
2021/10/11 05:51:58;;;;;;;11.20;9.80;;;;;;;7.39;73.09;96439.81;5051041;28;20209;-85
2021/10/11 05:54:27;;;;;;;9.63;6.77;;;;;;;7.41;73.10;96437.94;5049738;28;20961;-84
2021/10/11 05:56:54;;;;;;;7.77;6.87;;;;;;;7.43;72.92;96441.97;5031694;28;20229;-84
2021/10/11 05:59:21;;;;;;;7.23;6.53;;;;;;;7.46;73.20;96439.16;5044533;28;20201;-84
2021/10/11 06:01:47;;;;;;;9.70;7.00;;;;;;;7.57;73.13;96451.00;5049689;28;20231;-84
2021/10/11 06:04:15;;;;;;;7.07;6.37;;;;;;;7.62;72.43;96443.72;5034418;28;20236;-84
2021/10/11 06:06:42;;;;;;;6.97;6.27;;;;;;;7.73;72.41;96445.31;5032219;28;20220;-83
2021/10/11 06:09:08;;;;;;;7.13;6.43;;;;;;;7.90;71.66;96442.84;5032689;28;20206;-83
2021/10/11 06:11:39;;;;;;;7.23;6.63;;;;;;;8.13;70.83;96434.81;5034843;28;20198;-84
2021/10/11 06:14:05;;;;;;;6.77;6.17;;;;;;;8.30;70.34;96431.50;5035038;28;20206;-84
2021/10/11 06:16:32;;;;;;;5.83;5.33;;;;;;;8.41;69.17;96433.94;5042554;28;20313;-84
2021/10/11 06:18:58;;;;;;;6.43;5.83;;;;;;;8.60;68.59;96421.00;5056087;28;20197;-84
2021/10/11 06:21:25;;;;;;;7.40;5.43;;;;;;;8.70;67.92;96415.81;5057008;28;20208;-82
2021/10/11 06:23:52;;;;;;;6.30;5.70;;;;;;;8.89;67.13;96415.69;5055894;28;20202;-83
2021/10/11 06:26:21;;;;;;;12.40;9.17;;;;;;;9.00;66.96;96406.97;5037920;28;20226;-84
2021/10/11 06:28:49;;;;;;;11.13;7.60;;;;;;;9.12;66.56;96405.78;5036208;28;20202;-83
2021/10/11 06:31:16;;;;;;;6.87;6.17;;;;;;;9.17;66.48;96407.94;5036823;28;20198;-83
2021/10/11 06:33:42;;;;;;;6.23;5.63;;;;;;;9.41;65.77;96410.72;5035039;28;20277;-84
2021/10/11 06:36:09;;;;;;;6.07;5.47;;;;;;;9.60;65.23;96407.16;5034632;28;20616;-84
2021/10/11 06:38:36;;;;;;;6.87;6.23;;;;;;;9.86;64.51;96417.44;5035940;28;20202;-84
2021/10/11 06:41:02;;;;;;;6.33;5.73;;;;;;;10.14;63.79;96415.50;5035304;28;20209;-83
2021/10/11 06:43:29;;;;;;;7.47;5.77;;;;;;;10.33;62.46;96410.97;5034380;28;20229;-84
2021/10/11 06:46:00;;;;;;;11.33;6.50;;;;;;;10.45;62.06;96408.91;5033229;28;20218;-84
2021/10/11 06:48:26;;;;;;;6.07;5.57;;;;;;;10.61;61.46;96398.66;5032987;28;20198;-84
2021/10/11 06:50:53;;;;;;;7.53;5.67;;;;;;;10.59;61.41;96398.00;5032738;28;20228;-84
2021/10/11 06:53:40;;;;;;;7.43;5.43;;;;;;;10.79;61.39;96402.91;5032692;28;20208;-84
2021/10/11 06:56:07;;;;;;;6.13;5.20;;;;;;;10.96;60.87;96407.94;5032640;28;20822;-84
2021/10/11 06:58:33;;;;;;;6.13;5.33;;;;;;;11.21;60.07;96403.63;5040003;28;20197;-85
2021/10/11 07:01:04;;;;;;;7.93;7.13;;;;;;;11.36;59.76;96389.13;5051874;28;20727;-85
2021/10/11 07:03:31;;;;;;;7.63;5.83;;;;;;;11.42;59.83;96393.63;5051326;28;20236;-85
2021/10/11 07:06:03;;;;;;;5.83;5.23;;;;;;;11.54;58.86;96388.16;5051251;28;20328;-85
2021/10/11 07:08:30;;;;;;;7.00;6.10;;;;;;;11.65;58.84;96398.94;5051804;28;20287;-84
2021/10/11 07:10:59;;;;;;;6.10;5.50;;;;;;;11.78;58.48;96395.88;5051702;28;20602;-85
2021/10/11 07:13:28;;;;;;;7.50;5.40;;;;;;;11.99;58.42;96403.91;5051470;28;20248;-85
2021/10/11 07:15:54;;;;;;;5.83;5.13;;;;;;;12.11;57.93;96391.47;5051625;28;20225;-85
2021/10/11 07:18:22;;;;;;;6.23;5.63;;;;;;;12.30;57.05;96393.69;5051805;28;20224;-85
2021/10/11 07:20:53;;;;;;;5.77;5.17;;;;;;;12.55;57.28;96394.34;5051801;28;20326;-85
2021/10/11 07:23:44;;;;;;;5.63;5.13;;;;;;;12.68;56.46;96402.38;5051695;28;20570;-86
2021/10/11 07:26:13;;;;;;;5.43;5.00;;;;;;;12.87;56.05;96401.16;5031185;28;20222;-85
2021/10/11 07:28:39;;;;;;;6.00;5.03;;;;;;;13.07;55.60;96420.44;5031544;28;20683;-85
2021/10/11 07:31:06;;;;;;;7.17;5.10;;;;;;;13.18;55.54;96416.66;5030957;28;20208;-85
2021/10/11 07:33:34;;;;;;;5.90;5.27;;;;;;;13.19;55.51;96414.88;5034989;28;20205;-86
2021/10/11 07:36:00;;;;;;;6.57;5.53;;;;;;;13.38;55.02;96407.47;5051091;28;20587;-85
2021/10/11 07:38:27;;;;;;;5.90;5.20;;;;;;;13.72;54.46;96409.59;5050969;28;20249;-86
2021/10/11 07:40:54;;;;;;;8.43;5.10;;;;;;;13.75;54.08;96417.00;5051208;28;20225;-86
2021/10/11 07:43:20;;;;;;;5.63;5.13;;;;;;;13.81;54.58;96405.97;5042957;28;20224;-85
2021/10/11 07:45:49;;;;;;;5.97;5.23;;;;;;;13.97;53.93;96411.97;5050407;28;20228;-85
2021/10/11 07:48:16;;;;;;;6.03;5.33;;;;;;;14.28;53.99;96416.97;5050565;28;20190;-85
2021/10/11 07:50:44;;;;;;;5.87;5.37;;;;;;;14.40;53.46;96406.03;5047868;28;20259;-85
2021/10/11 07:53:13;;;;;;;6.33;5.73;;;;;;;14.72;53.55;96411.78;5030959;28;20198;-86
2021/10/11 07:55:41;;;;;;;7.00;6.30;;;;;;;14.85;52.56;96410.16;5029747;28;20932;-86
2021/10/11 07:58:08;;;;;;;6.13;5.47;;;;;;;15.08;52.58;96415.19;5035393;28;20691;-85
2021/10/11 08:00:35;;;;;;;5.90;5.40;;;;;;;15.15;52.49;96415.25;5036856;28;20248;-86
2021/10/11 08:03:01;;;;;;;15.33;12.20;;;;;;;15.25;52.20;96423.53;5030783;28;20244;-85
2021/10/11 08:05:28;;;;;;;9.47;6.23;;;;;;;15.32;51.57;96410.63;5029785;28;20230;-86
2021/10/11 08:07:56;;;;;;;5.90;5.40;;;;;;;15.48;51.67;96413.78;5030909;28;20665;-85
2021/10/11 08:10:22;;;;;;;6.37;5.80;;;;;;;15.68;51.62;96413.16;5030560;28;20198;-85
2021/10/11 08:12:51;;;;;;;6.67;6.00;;;;;;;15.83;51.53;96414.69;5030376;28;20290;-86
2021/10/11 08:15:18;;;;;;;7.17;6.13;;;;;;;15.97;50.94;96409.59;5029546;28;20655;-86
2021/10/11 08:17:44;;;;;;;6.77;5.90;;;;;;;15.93;50.10;96406.56;5042293;28;20209;-86
2021/10/11 08:20:14;;;;;;;8.83;6.70;;;;;;;15.89;50.47;96405.34;5041566;28;20205;-85
2021/10/11 08:22:42;;;;;;;7.77;6.97;;;;;;;15.88;50.57;96396.75;5049805;28;20216;-86
2021/10/11 08:25:16;;;;;;;7.80;7.00;;;;;;;15.73;50.44;96396.03;5050033;28;20236;-85
2021/10/11 08:27:50;;;;;;;7.67;6.87;;;;;;;15.72;50.80;96399.63;5049629;28;20668;-85
2021/10/11 08:30:19;;;;;;;6.83;6.13;;;;;;;15.77;51.05;96399.06;5030006;28;20779;-85
2021/10/11 08:35:26;;;;;;;8.27;7.47;;;;;;;15.71;51.26;96398.03;5028331;28;20247;-86
2021/10/11 08:37:53;;;;;;;7.28;6.50;;;;;;;15.79;51.11;96400.47;5042322;28;20197;-89
2021/10/11 08:40:22;;;;;;;7.93;6.85;;;;;;;15.78;50.99;96401.44;5049848;28;21102;-85
2021/10/11 08:42:51;;;;;;;7.43;6.73;;;;;;;15.81;51.56;96397.69;5049638;28;20221;-86
2021/10/11 08:45:20;;;;;;;7.57;6.87;;;;;;;15.81;51.26;96392.47;5049625;28;20230;-86
2021/10/11 08:47:48;;;;;;;10.53;8.40;;;;;;;15.83;50.97;96393.91;5047367;28;20700;-85
2021/10/11 08:50:17;;;;;;;9.57;8.33;;;;;;;15.89;50.56;96390.56;5029672;28;20206;-86
2021/10/11 08:52:48;;;;;;;8.32;7.45;;;;;;;15.95;50.54;96386.41;5029818;28;20205;-85
2021/10/11 08:55:15;;;;;;;8.63;7.78;;;;;;;15.95;51.11;96386.41;5043776;28;20241;-85
2021/10/11 08:57:43;;;;;;;8.67;7.50;;;;;;;16.11;50.72;96393.91;5049613;28;20197;-85
2021/10/11 09:00:16;;;;;;;8.38;7.57;;;;;;;16.19;49.31;96405.91;5049256;28;20209;-85
2021/10/11 09:02:55;;;;;;;8.25;7.28;;;;;;;16.22;48.95;96406.34;5049538;28;20327;-85
2021/10/11 09:05:23;;;;;;;8.30;7.50;;;;;;;16.26;49.77;96403.38;5048826;28;20315;-85
2021/10/11 09:08:03;;;;;;;9.23;7.93;;;;;;;16.09;49.55;96405.47;5049708;28;20205;-85
2021/10/11 09:10:33;;;;;;;9.10;7.32;;;;;;;16.22;50.43;96408.94;5049526;28;20300;-85
2021/10/11 09:13:14;;;;;;;8.70;7.80;;;;;;;16.10;50.59;96407.09;5049386;28;20240;-85
2021/10/11 09:15:41;;;;;;;11.95;8.45;;;;;;;15.88;50.52;96412.31;5049476;28;20299;-86
2021/10/11 09:18:07;;;;;;;9.45;8.43;;;;;;;15.89;50.47;96413.94;5049507;28;20201;-86
2021/10/11 09:20:39;;;;;;;9.82;8.40;;;;;;;15.81;50.57;96418.44;5049652;28;20583;-86
2021/10/11 09:23:11;;;;;;;11.48;9.20;;;;;;;15.68;50.35;96424.34;5049581;28;20225;-85
2021/10/11 09:25:40;;;;;;;12.73;9.17;;;;;;;15.65;50.54;96414.34;5049429;28;20217;-85
2021/10/11 09:28:09;;;;;;;12.20;8.70;;;;;;;15.49;51.24;96410.19;5046895;28;20197;-85
2021/10/11 09:30:41;;;;;;;12.35;9.13;;;;;;;15.39;51.09;96407.13;5038509;28;20672;-85
2021/10/11 09:33:10;;;;;;;9.88;8.75;;;;;;;15.36;51.26;96401.50;5047908;28;20221;-85
2021/10/11 09:35:37;;;;;;;10.50;9.13;;;;;;;15.27;50.96;96400.81;5050004;28;20224;-85
2021/10/11 09:38:06;;;;;;;35.95;31.35;;;;;;;15.32;51.21;96408.03;5049293;28;20270;-85
2021/10/11 09:40:43;;;;;;;11.90;10.70;;;;;;;15.34;50.84;96409.47;5052144;28;20197;-85
2021/10/11 09:43:16;;;;;;;10.77;9.53;;;;;;;15.41;51.52;96406.91;5039746;28;20228;-85
2021/10/11 09:45:46;;;;;;;9.53;8.53;;;;;;;15.39;51.89;96398.53;5029791;28;20225;-85
2021/10/11 09:48:13;;;;;;;10.30;9.23;;;;;;;15.36;52.04;96411.88;5050668;28;20206;-85
2021/10/11 09:50:41;;;;;;;10.00;8.93;;;;;;;15.38;51.49;96420.28;5050073;28;20296;-84
2021/10/11 09:53:11;;;;;;;10.60;9.07;;;;;;;15.40;50.92;96420.88;5050306;28;20194;-84
2021/10/11 09:55:44;;;;;;;10.30;9.20;;;;;;;15.29;49.83;96409.22;5052254;28;20251;-85
2021/10/11 09:58:16;;;;;;;10.07;8.82;;;;;;;15.32;49.50;96408.84;5047879;28;20205;-85
2021/10/11 10:00:47;;;;;;;9.43;8.43;;;;;;;15.32;49.05;96406.25;5033367;28;20665;-85
2021/10/11 10:03:13;;;;;;;11.93;8.97;;;;;;;15.42;49.91;96408.50;5036825;28;20217;-85
2021/10/11 10:05:45;;;;;;;10.30;8.83;;;;;;;15.39;50.39;96399.34;5052267;28;20631;-85
2021/10/11 10:11:19;;;;;;;12.73;8.13;;;;;;;15.49;49.20;96402.41;5052693;28;20200;-86
2021/10/11 10:13:55;;;;;;;9.27;8.10;;;;;;;15.47;49.27;96394.00;5052429;28;20201;-85
2021/10/11 10:16:21;;;;;;;9.70;8.63;;;;;;;15.36;47.94;96385.91;5052682;28;20569;-85
2021/10/11 10:18:51;;;;;;;11.68;7.60;;;;;;;15.38;48.89;96391.72;5052507;28;20231;-85
2021/10/11 10:21:32;;;;;;;8.70;7.73;;;;;;;15.42;49.52;96388.56;5052442;28;20625;-85
2021/10/11 10:23:58;;;;;;;14.00;11.70;;;;;;;15.30;48.22;96376.28;5051888;28;20235;-85
2021/10/11 10:26:41;;;;;;;10.43;8.63;;;;;;;15.20;48.25;96372.19;5052539;28;20202;-85
2021/10/11 10:29:18;;;;;;;8.30;7.50;;;;;;;14.98;49.06;96378.38;5048901;28;20208;-85
2021/10/11 10:31:46;;;;;;;9.48;7.05;;;;;;;14.92;48.27;96368.75;5052302;28;20292;-85
2021/10/11 10:34:15;;;;;;;13.73;7.43;;;;;;;14.98;49.32;96373.19;5051783;28;20236;-85
2021/10/11 10:36:42;;;;;;;10.13;7.63;;;;;;;15.03;50.17;96383.81;5051943;28;20201;-85
2021/10/11 10:39:12;;;;;;;8.60;7.73;;;;;;;15.04;51.15;96369.03;5033880;28;20229;-86
2021/10/11 10:41:42;;;;;;;9.00;7.77;;;;;;;15.00;51.13;96363.44;5032259;28;20198;-85
2021/10/11 10:44:15;;;;;;;10.07;7.40;;;;;;;14.93;49.24;96359.16;5032321;28;20230;-86
2021/10/11 10:47:13;;;;;;;9.70;7.57;;;;;;;15.03;49.20;96354.47;5032564;28;20202;-86
2021/10/11 10:49:43;;;;;;;8.67;7.60;;;;;;;15.09;49.12;96354.53;5015902;28;20788;-86
2021/10/11 10:52:14;;;;;;;9.47;8.43;;;;;;;15.11;49.92;96357.75;5032249;28;20580;-86
2021/10/11 10:54:43;;;;;;;8.73;7.83;;;;;;;15.23;50.04;96354.66;5031253;28;20232;-86
2021/10/11 10:57:11;;;;;;;14.13;12.73;;;;;;;15.31;49.29;96346.75;5031529;28;20460;-86
2021/10/11 10:59:44;;;;;;;9.80;8.57;;;;;;;15.11;47.93;96349.97;5031724;28;20740;-86
2021/10/11 11:02:14;;;;;;;9.53;8.03;;;;;;;15.02;49.49;96342.47;5032005;28;20301;-86
2021/10/11 11:04:56;;;;;;;10.07;7.00;;;;;;;15.01;49.63;96352.06;5030443;28;20240;-85
2021/10/11 11:07:30;;;;;;;7.83;6.80;;;;;;;15.03;49.18;96354.47;5031623;28;20213;-85
2021/10/11 11:09:58;;;;;;;7.23;6.53;;;;;;;15.14;49.39;96346.22;5031601;28;20252;-85
2021/10/11 11:12:37;;;;;;;8.30;7.23;;;;;;;15.03;47.65;96342.31;5031168;28;20224;-86
2021/10/11 11:15:07;;;;;;;7.70;6.87;;;;;;;15.14;48.41;96343.63;5031258;28;20214;-86
2021/10/11 11:17:42;;;;;;;10.97;7.43;;;;;;;15.08;49.38;96337.38;5031272;28;20202;-86
2021/10/11 11:20:23;;;;;;;10.20;7.50;;;;;;;14.81;49.03;96319.97;5048166;28;20203;-85
2021/10/11 11:22:51;;;;;;;10.67;7.07;;;;;;;14.89;51.07;96319.84;5051577;28;20211;-85
2021/10/11 11:25:28;;;;;;;7.30;6.57;;;;;;;15.01;51.01;96323.53;5051119;28;20308;-86
2021/10/11 11:27:56;;;;;;;8.70;7.27;;;;;;;15.13;49.11;96313.47;5051623;28;20189;-86
2021/10/11 11:30:32;;;;;;;7.60;6.90;;;;;;;15.18;48.58;96303.34;5051171;28;20714;-86
2021/10/11 11:33:08;;;;;;;7.93;6.32;;;;;;;15.30;49.07;96303.63;5050797;28;20299;-85
2021/10/11 11:35:38;;;;;;;7.70;6.50;;;;;;;15.32;47.90;96305.03;5050980;28;20656;-87
2021/10/11 11:38:10;;;;;;;7.13;6.43;;;;;;;15.44;47.96;96307.91;5051259;28;20201;-86
2021/10/11 11:40:44;;;;;;;7.10;6.40;;;;;;;15.31;46.16;96297.44;5051197;28;20664;-86
2021/10/11 11:43:13;;;;;;;7.37;5.80;;;;;;;15.44;46.79;96292.34;5049317;28;20237;-86
2021/10/11 11:45:41;;;;;;;8.25;5.75;;;;;;;15.48;46.20;96290.97;5045040;28;20225;-85
2021/10/11 11:48:12;;;;;;;12.03;8.37;;;;;;;15.48;46.35;96291.78;5049870;28;20210;-85